sensor_id;sensor_type;location;lat;lon;timestamp;temperature;humidity
18287;DHT22;9269;50.838;12.094;2024-03-06T00:00:43;9.50;59.70
18287;DHT22;9269;50.838;12.094;2024-03-06T00:03:15;9.50;59.80
18287;DHT22;9269;50.838;12.094;2024-03-06T00:05:44;9.40;59.90
18287;DHT22;9269;50.838;12.094;2024-03-06T00:08:12;9.30;59.80
18287;DHT22;9269;50.838;12.094;2024-03-06T00:10:42;9.40;59.70
18287;DHT22;9269;50.838;12.094;2024-03-06T00:13:12;9.40;59.80
18287;DHT22;9269;50.838;12.094;2024-03-06T00:19:40;9.40;59.70
18287;DHT22;9269;50.838;12.094;2024-03-06T00:22:13;9.40;59.60
18287;DHT22;9269;50.838;12.094;2024-03-06T00:24:44;9.40;59.60
18287;DHT22;9269;50.838;12.094;2024-03-06T00:27:16;9.30;59.40
18287;DHT22;9269;50.838;12.094;2024-03-06T00:29:44;9.30;59.80
18287;DHT22;9269;50.838;12.094;2024-03-06T00:32:13;9.40;59.90
18287;DHT22;9269;50.838;12.094;2024-03-06T00:34:42;9.30;59.60
18287;DHT22;9269;50.838;12.094;2024-03-06T00:37:11;9.40;59.50
18287;DHT22;9269;50.838;12.094;2024-03-06T00:39:43;9.30;59.80
18287;DHT22;9269;50.838;12.094;2024-03-06T00:42:16;9.40;59.60
18287;DHT22;9269;50.838;12.094;2024-03-06T00:44:47;9.40;59.90
18287;DHT22;9269;50.838;12.094;2024-03-06T00:47:19;9.40;59.30
18287;DHT22;9269;50.838;12.094;2024-03-06T00:49:49;9.30;59.70
18287;DHT22;9269;50.838;12.094;2024-03-06T00:52:18;9.40;59.50
18287;DHT22;9269;50.838;12.094;2024-03-06T00:54:47;9.40;59.40
18287;DHT22;9269;50.838;12.094;2024-03-06T00:57:17;9.20;59.40
18287;DHT22;9269;50.838;12.094;2024-03-06T00:59:46;9.40;59.50
18287;DHT22;9269;50.838;12.094;2024-03-06T01:02:17;9.40;59.30
18287;DHT22;9269;50.838;12.094;2024-03-06T01:04:46;9.40;59.30
18287;DHT22;9269;50.838;12.094;2024-03-06T01:07:14;9.40;59.40
18287;DHT22;9269;50.838;12.094;2024-03-06T01:09:45;9.30;59.20
18287;DHT22;9269;50.838;12.094;2024-03-06T01:12:14;9.40;59.20
18287;DHT22;9269;50.838;12.094;2024-03-06T01:14:44;9.30;59.30
18287;DHT22;9269;50.838;12.094;2024-03-06T01:17:13;9.30;59.40
18287;DHT22;9269;50.838;12.094;2024-03-06T01:19:41;9.40;59.20
18287;DHT22;9269;50.838;12.094;2024-03-06T01:22:30;9.40;59.60
18287;DHT22;9269;50.838;12.094;2024-03-06T01:25:01;9.40;59.50
18287;DHT22;9269;50.838;12.094;2024-03-06T01:27:32;9.30;59.30
18287;DHT22;9269;50.838;12.094;2024-03-06T01:30:07;9.40;59.80
18287;DHT22;9269;50.838;12.094;2024-03-06T01:32:37;9.50;59.70
18287;DHT22;9269;50.838;12.094;2024-03-06T01:35:06;9.40;59.40
18287;DHT22;9269;50.838;12.094;2024-03-06T01:37:36;9.40;59.60
18287;DHT22;9269;50.838;12.094;2024-03-06T01:40:05;9.30;59.30
18287;DHT22;9269;50.838;12.094;2024-03-06T01:42:36;9.40;59.30
18287;DHT22;9269;50.838;12.094;2024-03-06T01:45:09;9.30;59.70
18287;DHT22;9269;50.838;12.094;2024-03-06T01:47:39;9.40;59.50
18287;DHT22;9269;50.838;12.094;2024-03-06T01:50:09;9.50;59.50
18287;DHT22;9269;50.838;12.094;2024-03-06T01:52:39;9.40;59.60
18287;DHT22;9269;50.838;12.094;2024-03-06T01:55:10;9.40;59.50
18287;DHT22;9269;50.838;12.094;2024-03-06T01:57:39;9.30;59.40
18287;DHT22;9269;50.838;12.094;2024-03-06T02:00:11;9.40;59.50
18287;DHT22;9269;50.838;12.094;2024-03-06T02:02:42;9.30;59.30
18287;DHT22;9269;50.838;12.094;2024-03-06T02:05:11;9.40;58.90
18287;DHT22;9269;50.838;12.094;2024-03-06T02:07:43;9.30;59.40
18287;DHT22;9269;50.838;12.094;2024-03-06T02:10:16;9.30;58.80
18287;DHT22;9269;50.838;12.094;2024-03-06T02:12:48;9.40;59.10
18287;DHT22;9269;50.838;12.094;2024-03-06T02:15:18;9.30;58.90
18287;DHT22;9269;50.838;12.094;2024-03-06T02:17:47;9.30;58.90
18287;DHT22;9269;50.838;12.094;2024-03-06T02:20:16;9.30;58.80
18287;DHT22;9269;50.838;12.094;2024-03-06T02:22:46;9.30;59.00
18287;DHT22;9269;50.838;12.094;2024-03-06T02:25:14;9.20;59.20
18287;DHT22;9269;50.838;12.094;2024-03-06T02:28:03;9.20;58.60
18287;DHT22;9269;50.838;12.094;2024-03-06T02:30:36;9.10;58.70
18287;DHT22;9269;50.838;12.094;2024-03-06T02:33:08;9.10;58.80
18287;DHT22;9269;50.838;12.094;2024-03-06T02:35:39;9.20;58.60
18287;DHT22;9269;50.838;12.094;2024-03-06T02:38:12;9.20;58.90
18287;DHT22;9269;50.838;12.094;2024-03-06T02:40:43;9.20;58.60
18287;DHT22;9269;50.838;12.094;2024-03-06T02:43:11;9.10;58.40
18287;DHT22;9269;50.838;12.094;2024-03-06T02:45:40;9.10;59.20
18287;DHT22;9269;50.838;12.094;2024-03-06T02:48:09;9.00;58.70
18287;DHT22;9269;50.838;12.094;2024-03-06T02:50:40;9.20;58.90
18287;DHT22;9269;50.838;12.094;2024-03-06T02:53:12;9.10;58.90
18287;DHT22;9269;50.838;12.094;2024-03-06T02:55:41;9.10;59.00
18287;DHT22;9269;50.838;12.094;2024-03-06T02:58:12;8.90;59.20
18287;DHT22;9269;50.838;12.094;2024-03-06T03:00:41;9.00;58.40
18287;DHT22;9269;50.838;12.094;2024-03-06T03:03:11;9.10;59.00
18287;DHT22;9269;50.838;12.094;2024-03-06T03:05:40;9.00;59.20
18287;DHT22;9269;50.838;12.094;2024-03-06T03:08:09;8.90;59.10
18287;DHT22;9269;50.838;12.094;2024-03-06T03:10:38;9.00;58.70
18287;DHT22;9269;50.838;12.094;2024-03-06T03:13:10;9.00;58.40
18287;DHT22;9269;50.838;12.094;2024-03-06T03:15:41;8.90;58.60
18287;DHT22;9269;50.838;12.094;2024-03-06T03:18:13;8.90;58.80
18287;DHT22;9269;50.838;12.094;2024-03-06T03:20:44;8.90;59.00
18287;DHT22;9269;50.838;12.094;2024-03-06T03:23:13;8.80;58.90
18287;DHT22;9269;50.838;12.094;2024-03-06T03:25:44;8.90;58.50
18287;DHT22;9269;50.838;12.094;2024-03-06T03:28:14;8.80;59.00
18287;DHT22;9269;50.838;12.094;2024-03-06T03:30:43;8.90;58.50
18287;DHT22;9269;50.838;12.094;2024-03-06T03:33:30;8.90;58.80
18287;DHT22;9269;50.838;12.094;2024-03-06T03:36:02;8.80;58.50
18287;DHT22;9269;50.838;12.094;2024-03-06T03:38:33;8.80;58.40
18287;DHT22;9269;50.838;12.094;2024-03-06T03:41:08;8.80;58.70
18287;DHT22;9269;50.838;12.094;2024-03-06T03:43:39;8.80;58.30
18287;DHT22;9269;50.838;12.094;2024-03-06T03:46:08;8.80;58.40
18287;DHT22;9269;50.838;12.094;2024-03-06T03:48:38;8.90;58.50
18287;DHT22;9269;50.838;12.094;2024-03-06T03:51:08;8.90;58.20
18287;DHT22;9269;50.838;12.094;2024-03-06T03:56:18;8.90;58.00
18287;DHT22;9269;50.838;12.094;2024-03-06T03:58:50;8.90;58.10
18287;DHT22;9269;50.838;12.094;2024-03-06T04:01:20;8.80;58.50
18287;DHT22;9269;50.838;12.094;2024-03-06T04:03:51;8.80;58.40
18287;DHT22;9269;50.838;12.094;2024-03-06T04:06:19;8.70;58.70
18287;DHT22;9269;50.838;12.094;2024-03-06T04:08:48;8.80;58.60
18287;DHT22;9269;50.838;12.094;2024-03-06T04:11:16;8.70;58.40
18287;DHT22;9269;50.838;12.094;2024-03-06T04:13:46;8.70;58.60
18287;DHT22;9269;50.838;12.094;2024-03-06T04:16:16;8.50;58.70
18287;DHT22;9269;50.838;12.094;2024-03-06T04:18:48;8.60;58.80
18287;DHT22;9269;50.838;12.094;2024-03-06T04:21:19;8.40;58.70
18287;DHT22;9269;50.838;12.094;2024-03-06T04:23:52;8.70;59.30
18287;DHT22;9269;50.838;12.094;2024-03-06T04:26:23;8.60;58.80
18287;DHT22;9269;50.838;12.094;2024-03-06T04:28:53;8.50;58.70
18287;DHT22;9269;50.838;12.094;2024-03-06T04:31:21;8.50;58.60
18287;DHT22;9269;50.838;12.094;2024-03-06T04:33:50;8.40;58.40
18287;DHT22;9269;50.838;12.094;2024-03-06T04:36:19;8.30;58.70
18287;DHT22;9269;50.838;12.094;2024-03-06T04:39:07;8.30;58.80
18287;DHT22;9269;50.838;12.094;2024-03-06T04:41:38;8.40;59.00
18287;DHT22;9269;50.838;12.094;2024-03-06T04:44:11;8.30;59.00
18287;DHT22;9269;50.838;12.094;2024-03-06T04:46:42;8.30;58.30
18287;DHT22;9269;50.838;12.094;2024-03-06T04:49:13;8.30;57.90
18287;DHT22;9269;50.838;12.094;2024-03-06T04:51:43;8.30;58.10
18287;DHT22;9269;50.838;12.094;2024-03-06T04:54:11;8.30;58.10
18287;DHT22;9269;50.838;12.094;2024-03-06T04:56:40;8.40;58.00
18287;DHT22;9269;50.838;12.094;2024-03-06T04:59:28;8.40;58.20
18287;DHT22;9269;50.838;12.094;2024-03-06T05:01:59;8.40;58.40
18287;DHT22;9269;50.838;12.094;2024-03-06T05:04:33;8.30;58.30
18287;DHT22;9269;50.838;12.094;2024-03-06T05:07:22;8.30;58.00
18287;DHT22;9269;50.838;12.094;2024-03-06T05:10:09;8.40;58.00
18287;DHT22;9269;50.838;12.094;2024-03-06T05:12:55;8.50;57.80
18287;DHT22;9269;50.838;12.094;2024-03-06T05:15:42;8.50;57.90
18287;DHT22;9269;50.838;12.094;2024-03-06T05:18:29;8.50;57.70
18287;DHT22;9269;50.838;12.094;2024-03-06T05:21:15;8.40;57.80
18287;DHT22;9269;50.838;12.094;2024-03-06T05:24:04;8.40;58.00
18287;DHT22;9269;50.838;12.094;2024-03-06T05:26:51;8.50;57.40
18287;DHT22;9269;50.838;12.094;2024-03-06T05:29:40;8.50;57.60
18287;DHT22;9269;50.838;12.094;2024-03-06T05:32:30;8.50;57.30
18287;DHT22;9269;50.838;12.094;2024-03-06T05:35:17;8.50;57.30
18287;DHT22;9269;50.838;12.094;2024-03-06T05:38:03;8.40;57.50
18287;DHT22;9269;50.838;12.094;2024-03-06T05:40:49;8.50;57.60
18287;DHT22;9269;50.838;12.094;2024-03-06T05:43:35;8.30;57.10
18287;DHT22;9269;50.838;12.094;2024-03-06T05:46:24;8.40;57.30
18287;DHT22;9269;50.838;12.094;2024-03-06T05:49:14;8.40;57.60
18287;DHT22;9269;50.838;12.094;2024-03-06T05:52:04;8.40;57.60
18287;DHT22;9269;50.838;12.094;2024-03-06T05:54:53;8.40;57.60
18287;DHT22;9269;50.838;12.094;2024-03-06T05:57:39;8.20;57.20
18287;DHT22;9269;50.838;12.094;2024-03-06T06:00:30;8.40;57.90
18287;DHT22;9269;50.838;12.094;2024-03-06T06:02:59;8.30;57.60
18287;DHT22;9269;50.838;12.094;2024-03-06T06:05:29;8.30;57.70
18287;DHT22;9269;50.838;12.094;2024-03-06T06:08:00;8.30;57.90
18287;DHT22;9269;50.838;12.094;2024-03-06T06:10:31;8.30;57.50
18287;DHT22;9269;50.838;12.094;2024-03-06T06:13:02;8.20;57.00
18287;DHT22;9269;50.838;12.094;2024-03-06T06:15:35;8.20;57.90
18287;DHT22;9269;50.838;12.094;2024-03-06T06:18:09;8.20;57.80
18287;DHT22;9269;50.838;12.094;2024-03-06T06:20:40;8.20;58.10
18287;DHT22;9269;50.838;12.094;2024-03-06T06:23:14;8.10;58.00
18287;DHT22;9269;50.838;12.094;2024-03-06T06:25:43;8.20;57.70
18287;DHT22;9269;50.838;12.094;2024-03-06T06:28:21;8.20;57.90
18287;DHT22;9269;50.838;12.094;2024-03-06T06:30:53;8.20;57.90
18287;DHT22;9269;50.838;12.094;2024-03-06T06:33:21;8.20;57.90
18287;DHT22;9269;50.838;12.094;2024-03-06T06:35:54;8.10;57.90
18287;DHT22;9269;50.838;12.094;2024-03-06T06:38:22;7.90;57.90
18287;DHT22;9269;50.838;12.094;2024-03-06T06:40:51;8.10;57.80
18287;DHT22;9269;50.838;12.094;2024-03-06T06:43:19;8.10;57.30
18287;DHT22;9269;50.838;12.094;2024-03-06T06:45:48;8.00;57.60
18287;DHT22;9269;50.838;12.094;2024-03-06T06:48:20;8.10;57.40
18287;DHT22;9269;50.838;12.094;2024-03-06T06:50:51;8.00;57.40
18287;DHT22;9269;50.838;12.094;2024-03-06T06:53:24;8.10;57.20
18287;DHT22;9269;50.838;12.094;2024-03-06T06:55:55;8.10;57.40
18287;DHT22;9269;50.838;12.094;2024-03-06T06:58:26;8.10;57.70
18287;DHT22;9269;50.838;12.094;2024-03-06T07:00:55;8.10;57.50
18287;DHT22;9269;50.838;12.094;2024-03-06T07:03:23;8.20;57.30
18287;DHT22;9269;50.838;12.094;2024-03-06T07:05:56;8.20;57.40
18287;DHT22;9269;50.838;12.094;2024-03-06T07:08:26;8.20;57.20
18287;DHT22;9269;50.838;12.094;2024-03-06T07:10:55;8.30;57.30
18287;DHT22;9269;50.838;12.094;2024-03-06T07:13:27;8.30;57.10
18287;DHT22;9269;50.838;12.094;2024-03-06T07:15:59;8.20;56.90
18287;DHT22;9269;50.838;12.094;2024-03-06T07:18:27;8.20;57.20
18287;DHT22;9269;50.838;12.094;2024-03-06T07:20:59;8.10;57.00
18287;DHT22;9269;50.838;12.094;2024-03-06T07:23:29;8.20;56.90
18287;DHT22;9269;50.838;12.094;2024-03-06T07:25:57;8.20;57.10
18287;DHT22;9269;50.838;12.094;2024-03-06T07:28:26;8.20;56.70
18287;DHT22;9269;50.838;12.094;2024-03-06T07:30:55;8.30;56.60
18287;DHT22;9269;50.838;12.094;2024-03-06T07:33:43;8.20;56.60
18287;DHT22;9269;50.838;12.094;2024-03-06T07:36:12;8.20;56.20
18287;DHT22;9269;50.838;12.094;2024-03-06T07:38:44;8.30;56.10
18287;DHT22;9269;50.838;12.094;2024-03-06T07:41:16;8.20;56.10
18287;DHT22;9269;50.838;12.094;2024-03-06T07:43:46;8.30;56.10
18287;DHT22;9269;50.838;12.094;2024-03-06T07:46:16;8.40;55.70
18287;DHT22;9269;50.838;12.094;2024-03-06T07:48:44;8.40;56.10
18287;DHT22;9269;50.838;12.094;2024-03-06T07:51:13;8.30;56.10
18287;DHT22;9269;50.838;12.094;2024-03-06T07:53:41;8.30;56.70
18287;DHT22;9269;50.838;12.094;2024-03-06T07:56:13;8.30;56.20
18287;DHT22;9269;50.838;12.094;2024-03-06T07:58:45;8.30;56.10
18287;DHT22;9269;50.838;12.094;2024-03-06T08:01:16;8.30;56.20
18287;DHT22;9269;50.838;12.094;2024-03-06T08:03:47;8.30;56.10
18287;DHT22;9269;50.838;12.094;2024-03-06T08:06:15;8.30;56.10
18287;DHT22;9269;50.838;12.094;2024-03-06T08:08:45;8.50;55.80
18287;DHT22;9269;50.838;12.094;2024-03-06T08:11:32;8.50;55.50
18287;DHT22;9269;50.838;12.094;2024-03-06T08:14:01;8.70;55.30
18287;DHT22;9269;50.838;12.094;2024-03-06T08:16:30;8.60;55.40
18287;DHT22;9269;50.838;12.094;2024-03-06T08:19:06;8.60;54.80
18287;DHT22;9269;50.838;12.094;2024-03-06T08:21:38;8.90;54.40
18287;DHT22;9269;50.838;12.094;2024-03-06T08:24:09;9.00;54.40
18287;DHT22;9269;50.838;12.094;2024-03-06T08:26:41;9.00;54.10
18287;DHT22;9269;50.838;12.094;2024-03-06T08:29:10;9.20;53.90
18287;DHT22;9269;50.838;12.094;2024-03-06T08:31:39;9.20;54.10
18287;DHT22;9269;50.838;12.094;2024-03-06T08:34:07;9.30;54.10
18287;DHT22;9269;50.838;12.094;2024-03-06T08:36:35;9.40;53.60
18287;DHT22;9269;50.838;12.094;2024-03-06T08:39:22;9.40;53.60
18287;DHT22;9269;50.838;12.094;2024-03-06T08:41:54;9.40;53.50
18287;DHT22;9269;50.838;12.094;2024-03-06T08:44:27;9.50;53.30
18287;DHT22;9269;50.838;12.094;2024-03-06T08:46:59;9.50;53.00
18287;DHT22;9269;50.838;12.094;2024-03-06T08:49:30;9.60;53.10
18287;DHT22;9269;50.838;12.094;2024-03-06T08:51:58;9.70;53.20
18287;DHT22;9269;50.838;12.094;2024-03-06T08:54:26;9.80;53.00
18287;DHT22;9269;50.838;12.094;2024-03-06T08:56:56;9.80;52.40
18287;DHT22;9269;50.838;12.094;2024-03-06T08:59:26;9.90;51.70
18287;DHT22;9269;50.838;12.094;2024-03-06T09:01:57;10.00;52.00
18287;DHT22;9269;50.838;12.094;2024-03-06T09:04:28;10.10;51.80
18287;DHT22;9269;50.838;12.094;2024-03-06T09:06:59;10.20;51.80
18287;DHT22;9269;50.838;12.094;2024-03-06T09:09:30;10.30;51.20
18287;DHT22;9269;50.838;12.094;2024-03-06T09:12:02;10.40;51.10
18287;DHT22;9269;50.838;12.094;2024-03-06T09:14:32;10.40;50.90
18287;DHT22;9269;50.838;12.094;2024-03-06T09:17:01;10.60;51.00
18287;DHT22;9269;50.838;12.094;2024-03-06T09:19:30;10.70;50.90
18287;DHT22;9269;50.838;12.094;2024-03-06T09:21:59;10.70;50.70
18287;DHT22;9269;50.838;12.094;2024-03-06T09:24:30;10.80;50.80
18287;DHT22;9269;50.838;12.094;2024-03-06T09:27:03;10.90;50.00
18287;DHT22;9269;50.838;12.094;2024-03-06T09:29:34;11.00;50.10
18287;DHT22;9269;50.838;12.094;2024-03-06T09:32:06;11.00;50.20
18287;DHT22;9269;50.838;12.094;2024-03-06T09:34:34;11.10;50.20
18287;DHT22;9269;50.838;12.094;2024-03-06T09:37:04;11.30;49.80
18287;DHT22;9269;50.838;12.094;2024-03-06T09:39:32;11.30;49.60
18287;DHT22;9269;50.838;12.094;2024-03-06T09:42:02;11.50;49.40
18287;DHT22;9269;50.838;12.094;2024-03-06T09:44:50;11.60;49.60
18287;DHT22;9269;50.838;12.094;2024-03-06T09:47:22;11.70;49.50
18287;DHT22;9269;50.838;12.094;2024-03-06T09:49:55;11.80;49.20
18287;DHT22;9269;50.838;12.094;2024-03-06T09:52:27;11.80;49.60
18287;DHT22;9269;50.838;12.094;2024-03-06T09:54:58;11.90;49.20
18287;DHT22;9269;50.838;12.094;2024-03-06T09:57:29;12.00;49.30
18287;DHT22;9269;50.838;12.094;2024-03-06T09:59:57;12.10;48.90
18287;DHT22;9269;50.838;12.094;2024-03-06T10:02:34;12.20;49.00
18287;DHT22;9269;50.838;12.094;2024-03-06T10:05:04;12.20;48.70
18287;DHT22;9269;50.838;12.094;2024-03-06T10:07:34;12.40;48.10
18287;DHT22;9269;50.838;12.094;2024-03-06T10:10:06;12.50;48.30
18287;DHT22;9269;50.838;12.094;2024-03-06T10:12:40;12.50;48.20
18287;DHT22;9269;50.838;12.094;2024-03-06T10:15:12;12.60;47.90
18287;DHT22;9269;50.838;12.094;2024-03-06T10:17:41;12.80;46.60
18287;DHT22;9269;50.838;12.094;2024-03-06T10:20:18;12.70;46.60
18287;DHT22;9269;50.838;12.094;2024-03-06T10:22:52;12.80;46.20
18287;DHT22;9269;50.838;12.094;2024-03-06T10:25:26;12.90;46.00
18287;DHT22;9269;50.838;12.094;2024-03-06T10:28:07;12.90;45.80
18287;DHT22;9269;50.838;12.094;2024-03-06T10:30:39;13.00;45.60
18287;DHT22;9269;50.838;12.094;2024-03-06T10:33:14;13.10;45.60
18287;DHT22;9269;50.838;12.094;2024-03-06T10:35:46;13.10;45.30
18287;DHT22;9269;50.838;12.094;2024-03-06T10:38:19;13.10;44.50
18287;DHT22;9269;50.838;12.094;2024-03-06T10:41:07;13.20;44.80
18287;DHT22;9269;50.838;12.094;2024-03-06T10:43:47;13.20;45.00
18287;DHT22;9269;50.838;12.094;2024-03-06T10:46:20;13.20;44.80
18287;DHT22;9269;50.838;12.094;2024-03-06T10:48:49;13.30;44.40
18287;DHT22;9269;50.838;12.094;2024-03-06T10:51:21;13.20;44.70
18287;DHT22;9269;50.838;12.094;2024-03-06T10:53:50;13.30;44.40
18287;DHT22;9269;50.838;12.094;2024-03-06T10:56:21;13.40;44.40
18287;DHT22;9269;50.838;12.094;2024-03-06T10:58:54;13.40;44.80
18287;DHT22;9269;50.838;12.094;2024-03-06T11:01:24;13.60;44.60
18287;DHT22;9269;50.838;12.094;2024-03-06T11:03:53;13.50;44.50
18287;DHT22;9269;50.838;12.094;2024-03-06T11:06:33;13.60;44.20
18287;DHT22;9269;50.838;12.094;2024-03-06T11:09:07;13.70;44.00
18287;DHT22;9269;50.838;12.094;2024-03-06T11:11:48;13.80;43.60
18287;DHT22;9269;50.838;12.094;2024-03-06T11:14:23;13.80;44.50
18287;DHT22;9269;50.838;12.094;2024-03-06T11:17:00;13.80;43.90
18287;DHT22;9269;50.838;12.094;2024-03-06T11:20:08;13.90;43.90
18287;DHT22;9269;50.838;12.094;2024-03-06T11:23:04;14.00;42.90
18287;DHT22;9269;50.838;12.094;2024-03-06T11:26:02;14.10;42.00
18287;DHT22;9269;50.838;12.094;2024-03-06T11:28:33;14.10;42.10
18287;DHT22;9269;50.838;12.094;2024-03-06T11:31:05;14.10;41.90
18287;DHT22;9269;50.838;12.094;2024-03-06T11:33:53;14.10;41.60
18287;DHT22;9269;50.838;12.094;2024-03-06T11:36:28;14.10;42.00
18287;DHT22;9269;50.838;12.094;2024-03-06T11:38:58;14.10;42.60
18287;DHT22;9269;50.838;12.094;2024-03-06T11:41:32;14.20;42.40
18287;DHT22;9269;50.838;12.094;2024-03-06T11:44:06;14.20;41.70
18287;DHT22;9269;50.838;12.094;2024-03-06T11:46:45;14.20;40.90
18287;DHT22;9269;50.838;12.094;2024-03-06T11:49:22;14.30;40.30
18287;DHT22;9269;50.838;12.094;2024-03-06T11:51:52;14.20;40.30
18287;DHT22;9269;50.838;12.094;2024-03-06T11:54:22;14.20;40.30
18287;DHT22;9269;50.838;12.094;2024-03-06T11:56:57;14.30;40.80
18287;DHT22;9269;50.838;12.094;2024-03-06T11:59:30;14.30;40.60
18287;DHT22;9269;50.838;12.094;2024-03-06T12:02:03;14.40;40.60
18287;DHT22;9269;50.838;12.094;2024-03-06T12:04:35;14.40;39.50
18287;DHT22;9269;50.838;12.094;2024-03-06T12:07:06;14.50;39.80
18287;DHT22;9269;50.838;12.094;2024-03-06T12:09:38;14.40;39.40
18287;DHT22;9269;50.838;12.094;2024-03-06T12:12:10;14.40;39.70
18287;DHT22;9269;50.838;12.094;2024-03-06T12:14:40;14.50;39.10
18287;DHT22;9269;50.838;12.094;2024-03-06T12:17:13;14.50;39.00
18287;DHT22;9269;50.838;12.094;2024-03-06T12:19:48;14.40;38.90
18287;DHT22;9269;50.838;12.094;2024-03-06T12:22:19;14.50;38.80
18287;DHT22;9269;50.838;12.094;2024-03-06T12:24:59;14.50;38.80
18287;DHT22;9269;50.838;12.094;2024-03-06T12:27:30;14.50;38.00
18287;DHT22;9269;50.838;12.094;2024-03-06T12:30:09;14.50;38.20
18287;DHT22;9269;50.838;12.094;2024-03-06T12:32:41;14.60;38.60
18287;DHT22;9269;50.838;12.094;2024-03-06T12:35:10;14.50;38.40
18287;DHT22;9269;50.838;12.094;2024-03-06T12:37:39;14.40;38.70
18287;DHT22;9269;50.838;12.094;2024-03-06T12:40:09;14.30;38.10
18287;DHT22;9269;50.838;12.094;2024-03-06T12:42:43;14.40;37.90
18287;DHT22;9269;50.838;12.094;2024-03-06T12:45:15;14.40;37.40
18287;DHT22;9269;50.838;12.094;2024-03-06T12:47:48;14.40;37.90
18287;DHT22;9269;50.838;12.094;2024-03-06T12:50:17;14.40;37.70
18287;DHT22;9269;50.838;12.094;2024-03-06T12:52:46;14.50;37.50
18287;DHT22;9269;50.838;12.094;2024-03-06T12:55:14;14.40;37.10
18287;DHT22;9269;50.838;12.094;2024-03-06T12:57:43;14.30;37.20
18287;DHT22;9269;50.838;12.094;2024-03-06T13:00:12;14.30;37.30
18287;DHT22;9269;50.838;12.094;2024-03-06T13:02:47;14.30;36.80
18287;DHT22;9269;50.838;12.094;2024-03-06T13:05:19;14.30;36.80
18287;DHT22;9269;50.838;12.094;2024-03-06T13:07:49;14.10;37.00
18287;DHT22;9269;50.838;12.094;2024-03-06T13:10:19;14.20;36.70
18287;DHT22;9269;50.838;12.094;2024-03-06T13:12:49;14.20;36.20
18287;DHT22;9269;50.838;12.094;2024-03-06T13:15:20;14.20;36.60
18287;DHT22;9269;50.838;12.094;2024-03-06T13:17:51;14.30;36.10
18287;DHT22;9269;50.838;12.094;2024-03-06T13:20:19;14.30;36.40
18287;DHT22;9269;50.838;12.094;2024-03-06T13:23:07;14.20;36.60
18287;DHT22;9269;50.838;12.094;2024-03-06T13:25:39;14.20;36.80
18287;DHT22;9269;50.838;12.094;2024-03-06T13:28:11;14.20;37.00
18287;DHT22;9269;50.838;12.094;2024-03-06T13:30:42;14.20;37.50
18287;DHT22;9269;50.838;12.094;2024-03-06T13:33:14;14.10;37.40
18287;DHT22;9269;50.838;12.094;2024-03-06T13:35:43;14.00;37.30
18287;DHT22;9269;50.838;12.094;2024-03-06T13:38:12;13.90;37.30
18287;DHT22;9269;50.838;12.094;2024-03-06T13:40:40;13.80;37.00
18287;DHT22;9269;50.838;12.094;2024-03-06T13:43:10;13.80;37.00
18287;DHT22;9269;50.838;12.094;2024-03-06T13:45:48;13.80;36.80
18287;DHT22;9269;50.838;12.094;2024-03-06T13:48:19;13.80;36.50
18287;DHT22;9269;50.838;12.094;2024-03-06T13:50:48;13.80;36.60
18287;DHT22;9269;50.838;12.094;2024-03-06T13:53:20;13.80;37.00
18287;DHT22;9269;50.838;12.094;2024-03-06T13:55:49;13.70;37.70
18287;DHT22;9269;50.838;12.094;2024-03-06T13:58:18;13.70;37.80
18287;DHT22;9269;50.838;12.094;2024-03-06T14:00:47;13.70;37.20
18287;DHT22;9269;50.838;12.094;2024-03-06T14:03:15;13.60;37.10
18287;DHT22;9269;50.838;12.094;2024-03-06T14:05:45;13.50;37.10
18287;DHT22;9269;50.838;12.094;2024-03-06T14:08:16;13.40;37.30
18287;DHT22;9269;50.838;12.094;2024-03-06T14:10:45;13.40;37.80
18287;DHT22;9269;50.838;12.094;2024-03-06T14:13:16;13.40;38.00
18287;DHT22;9269;50.838;12.094;2024-03-06T14:15:45;13.40;37.90
18287;DHT22;9269;50.838;12.094;2024-03-06T14:18:16;13.30;37.80
18287;DHT22;9269;50.838;12.094;2024-03-06T14:20:46;13.30;37.60
18287;DHT22;9269;50.838;12.094;2024-03-06T14:23:15;13.30;37.90
18287;DHT22;9269;50.838;12.094;2024-03-06T14:25:44;13.20;37.90
18287;DHT22;9269;50.838;12.094;2024-03-06T14:28:13;13.10;38.00
18287;DHT22;9269;50.838;12.094;2024-03-06T14:30:44;13.00;38.20
18287;DHT22;9269;50.838;12.094;2024-03-06T14:33:12;13.10;38.40
18287;DHT22;9269;50.838;12.094;2024-03-06T14:35:43;13.10;38.40
18287;DHT22;9269;50.838;12.094;2024-03-06T14:38:16;13.10;38.30
18287;DHT22;9269;50.838;12.094;2024-03-06T14:40:45;13.10;38.40
18287;DHT22;9269;50.838;12.094;2024-03-06T14:43:13;13.20;37.90
18287;DHT22;9269;50.838;12.094;2024-03-06T14:45:42;13.10;38.10
18287;DHT22;9269;50.838;12.094;2024-03-06T14:48:13;13.00;38.00
18287;DHT22;9269;50.838;12.094;2024-03-06T14:50:59;12.80;37.80
18287;DHT22;9269;50.838;12.094;2024-03-06T14:53:31;12.70;37.70
18287;DHT22;9269;50.838;12.094;2024-03-06T14:56:02;12.60;39.50
18287;DHT22;9269;50.838;12.094;2024-03-06T14:58:34;12.70;39.70
18287;DHT22;9269;50.838;12.094;2024-03-06T15:01:03;12.70;39.40
18287;DHT22;9269;50.838;12.094;2024-03-06T15:03:32;12.70;39.60
18287;DHT22;9269;50.838;12.094;2024-03-06T15:06:01;12.70;38.30
18287;DHT22;9269;50.838;12.094;2024-03-06T15:08:31;12.70;39.00
18287;DHT22;9269;50.838;12.094;2024-03-06T15:10:59;12.60;38.80
18287;DHT22;9269;50.838;12.094;2024-03-06T15:13:28;12.40;39.20
18287;DHT22;9269;50.838;12.094;2024-03-06T15:15:58;12.40;39.50
18287;DHT22;9269;50.838;12.094;2024-03-06T15:18:30;12.30;39.60
18287;DHT22;9269;50.838;12.094;2024-03-06T15:21:01;12.40;39.60
18287;DHT22;9269;50.838;12.094;2024-03-06T15:23:31;12.40;39.70
18287;DHT22;9269;50.838;12.094;2024-03-06T15:26:00;12.40;40.00
18287;DHT22;9269;50.838;12.094;2024-03-06T15:28:28;12.30;39.50
18287;DHT22;9269;50.838;12.094;2024-03-06T15:30:57;12.20;39.40
18287;DHT22;9269;50.838;12.094;2024-03-06T15:33:25;12.20;39.90
18287;DHT22;9269;50.838;12.094;2024-03-06T15:35:57;12.00;39.90
18287;DHT22;9269;50.838;12.094;2024-03-06T15:38:31;11.90;39.60
18287;DHT22;9269;50.838;12.094;2024-03-06T15:41:02;11.70;39.70
18287;DHT22;9269;50.838;12.094;2024-03-06T15:43:32;11.70;39.80
18287;DHT22;9269;50.838;12.094;2024-03-06T15:46:01;11.70;39.50
18287;DHT22;9269;50.838;12.094;2024-03-06T15:48:29;11.50;39.20
18287;DHT22;9269;50.838;12.094;2024-03-06T15:50:59;11.50;39.30
18287;DHT22;9269;50.838;12.094;2024-03-06T15:53:28;11.40;39.50
18287;DHT22;9269;50.838;12.094;2024-03-06T15:56:18;11.30;39.40
18287;DHT22;9269;50.838;12.094;2024-03-06T15:58:48;11.30;39.90
18287;DHT22;9269;50.838;12.094;2024-03-06T16:01:19;11.20;39.80
18287;DHT22;9269;50.838;12.094;2024-03-06T16:03:50;11.20;40.10
18287;DHT22;9269;50.838;12.094;2024-03-06T16:06:19;11.20;39.50
18287;DHT22;9269;50.838;12.094;2024-03-06T16:08:57;11.20;40.00
18287;DHT22;9269;50.838;12.094;2024-03-06T16:11:28;11.10;40.00
18287;DHT22;9269;50.838;12.094;2024-03-06T16:13:59;10.90;39.90
18287;DHT22;9269;50.838;12.094;2024-03-06T16:16:34;10.90;40.40
18287;DHT22;9269;50.838;12.094;2024-03-06T16:19:05;10.80;40.20